sensor_id;sensor_type;location;lat;lon;timestamp;P1;durP1;ratioP1;P2;durP2;ratioP2
19213;SDS011;9741;51.020;5.304;2023-11-18T00:00:49;3.07;;;2.43;;
19213;SDS011;9741;51.020;5.304;2023-11-18T00:03:34;3.40;;;2.37;;
19213;SDS011;9741;51.020;5.304;2023-11-18T00:06:10;2.17;;;1.97;;
19213;SDS011;9741;51.020;5.304;2023-11-18T00:08:39;6.47;;;3.10;;
19213;SDS011;9741;51.020;5.304;2023-11-18T00:11:17;4.77;;;2.90;;
19213;SDS011;9741;51.020;5.304;2023-11-18T00:13:54;8.63;;;2.97;;
19213;SDS011;9741;51.020;5.304;2023-11-18T00:16:33;4.27;;;2.00;;
19213;SDS011;9741;51.020;5.304;2023-11-18T00:19:31;2.30;;;1.97;;
19213;SDS011;9741;51.020;5.304;2023-11-18T00:22:22;2.53;;;2.23;;
19213;SDS011;9741;51.020;5.304;2023-11-18T00:24:55;3.63;;;2.23;;
19213;SDS011;9741;51.020;5.304;2023-11-18T00:27:25;2.10;;;1.77;;
19213;SDS011;9741;51.020;5.304;2023-11-18T00:30:09;3.87;;;2.10;;
19213;SDS011;9741;51.020;5.304;2023-11-18T00:32:45;2.17;;;1.67;;
19213;SDS011;9741;51.020;5.304;2023-11-18T00:35:15;4.90;;;1.50;;
19213;SDS011;9741;51.020;5.304;2023-11-18T00:37:45;2.77;;;2.50;;
19213;SDS011;9741;51.020;5.304;2023-11-18T00:40:17;2.33;;;2.13;;
19213;SDS011;9741;51.020;5.304;2023-11-18T00:42:46;1.70;;;1.60;;
19213;SDS011;9741;51.020;5.304;2023-11-18T00:45:27;2.17;;;1.90;;
19213;SDS011;9741;51.020;5.304;2023-11-18T00:47:58;3.73;;;3.07;;
19213;SDS011;9741;51.020;5.304;2023-11-18T00:50:32;2.10;;;1.57;;
19213;SDS011;9741;51.020;5.304;2023-11-18T00:53:17;1.67;;;1.57;;
19213;SDS011;9741;51.020;5.304;2023-11-18T00:55:52;3.37;;;3.03;;
19213;SDS011;9741;51.020;5.304;2023-11-18T00:58:23;1.73;;;1.43;;
19213;SDS011;9741;51.020;5.304;2023-11-18T01:00:59;4.60;;;1.50;;
19213;SDS011;9741;51.020;5.304;2023-11-18T01:03:33;2.03;;;1.83;;
19213;SDS011;9741;51.020;5.304;2023-11-18T01:06:09;3.23;;;2.43;;
19213;SDS011;9741;51.020;5.304;2023-11-18T01:08:59;2.17;;;1.43;;
19213;SDS011;9741;51.020;5.304;2023-11-18T01:11:47;2.17;;;1.80;;
19213;SDS011;9741;51.020;5.304;2023-11-18T01:14:38;7.57;;;2.03;;
19213;SDS011;9741;51.020;5.304;2023-11-18T01:17:10;1.60;;;1.50;;
19213;SDS011;9741;51.020;5.304;2023-11-18T01:19:42;2.13;;;1.77;;
19213;SDS011;9741;51.020;5.304;2023-11-18T01:22:38;6.33;;;1.53;;
19213;SDS011;9741;51.020;5.304;2023-11-18T01:25:15;0.83;;;0.83;;
19213;SDS011;9741;51.020;5.304;2023-11-18T01:27:54;3.77;;;1.23;;
19213;SDS011;9741;51.020;5.304;2023-11-18T01:30:29;2.87;;;1.87;;
19213;SDS011;9741;51.020;5.304;2023-11-18T01:32:58;2.27;;;1.83;;
19213;SDS011;9741;51.020;5.304;2023-11-18T01:35:29;2.27;;;2.07;;
19213;SDS011;9741;51.020;5.304;2023-11-18T01:37:57;1.33;;;1.20;;
19213;SDS011;9741;51.020;5.304;2023-11-18T01:40:28;13.33;;;2.30;;
19213;SDS011;9741;51.020;5.304;2023-11-18T01:43:08;1.97;;;1.70;;
19213;SDS011;9741;51.020;5.304;2023-11-18T01:46:03;5.80;;;2.53;;
19213;SDS011;9741;51.020;5.304;2023-11-18T01:52:10;5.27;;;2.83;;
19213;SDS011;9741;51.020;5.304;2023-11-18T01:55:15;4.00;;;1.60;;
19213;SDS011;9741;51.020;5.304;2023-11-18T02:01:00;2.30;;;2.10;;
19213;SDS011;9741;51.020;5.304;2023-11-18T02:03:45;3.23;;;1.40;;
19213;SDS011;9741;51.020;5.304;2023-11-18T02:06:20;2.50;;;2.00;;
19213;SDS011;9741;51.020;5.304;2023-11-18T02:09:10;2.00;;;1.83;;
19213;SDS011;9741;51.020;5.304;2023-11-18T02:12:25;5.07;;;2.37;;
19213;SDS011;9741;51.020;5.304;2023-11-18T02:15:11;1.63;;;1.53;;
19213;SDS011;9741;51.020;5.304;2023-11-18T02:17:46;5.43;;;2.33;;
19213;SDS011;9741;51.020;5.304;2023-11-18T02:20:18;2.93;;;1.17;;
19213;SDS011;9741;51.020;5.304;2023-11-18T02:23:14;3.37;;;1.87;;
19213;SDS011;9741;51.020;5.304;2023-11-18T02:26:00;2.87;;;1.93;;
19213;SDS011;9741;51.020;5.304;2023-11-18T02:28:44;2.83;;;2.17;;
19213;SDS011;9741;51.020;5.304;2023-11-18T02:31:22;1.33;;;1.23;;
19213;SDS011;9741;51.020;5.304;2023-11-18T02:34:00;2.03;;;1.87;;
19213;SDS011;9741;51.020;5.304;2023-11-18T02:36:41;3.13;;;1.97;;
19213;SDS011;9741;51.020;5.304;2023-11-18T02:39:25;7.23;;;2.97;;
19213;SDS011;9741;51.020;5.304;2023-11-18T02:42:01;4.00;;;2.33;;
19213;SDS011;9741;51.020;5.304;2023-11-18T02:44:39;1.60;;;1.50;;
19213;SDS011;9741;51.020;5.304;2023-11-18T02:47:14;3.30;;;2.17;;
19213;SDS011;9741;51.020;5.304;2023-11-18T02:49:53;2.23;;;2.03;;
19213;SDS011;9741;51.020;5.304;2023-11-18T02:52:30;1.97;;;1.60;;
19213;SDS011;9741;51.020;5.304;2023-11-18T02:55:00;3.90;;;1.87;;
19213;SDS011;9741;51.020;5.304;2023-11-18T02:57:41;2.23;;;1.93;;
19213;SDS011;9741;51.020;5.304;2023-11-18T03:00:13;1.60;;;1.47;;
19213;SDS011;9741;51.020;5.304;2023-11-18T03:02:47;2.73;;;2.20;;
19213;SDS011;9741;51.020;5.304;2023-11-18T03:05:24;3.53;;;2.33;;
19213;SDS011;9741;51.020;5.304;2023-11-18T03:07:52;2.00;;;1.73;;
19213;SDS011;9741;51.020;5.304;2023-11-18T03:10:23;3.73;;;1.90;;
19213;SDS011;9741;51.020;5.304;2023-11-18T03:12:53;3.63;;;2.70;;
19213;SDS011;9741;51.020;5.304;2023-11-18T03:15:22;2.93;;;2.60;;
19213;SDS011;9741;51.020;5.304;2023-11-18T03:17:51;3.27;;;2.30;;
19213;SDS011;9741;51.020;5.304;2023-11-18T03:20:24;4.00;;;2.43;;
19213;SDS011;9741;51.020;5.304;2023-11-18T03:23:09;3.90;;;2.27;;
19213;SDS011;9741;51.020;5.304;2023-11-18T03:25:44;4.97;;;2.43;;
19213;SDS011;9741;51.020;5.304;2023-11-18T03:28:28;2.40;;;2.20;;
19213;SDS011;9741;51.020;5.304;2023-11-18T03:31:06;2.27;;;1.83;;
19213;SDS011;9741;51.020;5.304;2023-11-18T03:33:36;2.73;;;1.67;;
19213;SDS011;9741;51.020;5.304;2023-11-18T03:36:21;3.40;;;2.17;;
19213;SDS011;9741;51.020;5.304;2023-11-18T03:38:56;2.23;;;1.67;;
19213;SDS011;9741;51.020;5.304;2023-11-18T03:42:01;3.43;;;3.00;;
19213;SDS011;9741;51.020;5.304;2023-11-18T03:44:40;2.93;;;2.03;;
19213;SDS011;9741;51.020;5.304;2023-11-18T03:47:21;2.90;;;2.00;;
19213;SDS011;9741;51.020;5.304;2023-11-18T03:50:01;2.97;;;2.37;;
19213;SDS011;9741;51.020;5.304;2023-11-18T03:52:37;2.70;;;2.10;;
19213;SDS011;9741;51.020;5.304;2023-11-18T03:55:18;3.07;;;2.03;;
19213;SDS011;9741;51.020;5.304;2023-11-18T03:57:58;2.93;;;2.50;;
19213;SDS011;9741;51.020;5.304;2023-11-18T04:00:39;4.50;;;2.20;;
19213;SDS011;9741;51.020;5.304;2023-11-18T04:03:12;2.53;;;2.33;;
19213;SDS011;9741;51.020;5.304;2023-11-18T04:05:52;4.37;;;1.47;;
19213;SDS011;9741;51.020;5.304;2023-11-18T04:08:42;4.73;;;3.03;;
19213;SDS011;9741;51.020;5.304;2023-11-18T04:11:22;9.70;;;3.20;;
19213;SDS011;9741;51.020;5.304;2023-11-18T04:14:22;6.73;;;2.93;;
19213;SDS011;9741;51.020;5.304;2023-11-18T04:16:55;7.77;;;4.07;;
19213;SDS011;9741;51.020;5.304;2023-11-18T04:19:35;2.17;;;1.33;;
19213;SDS011;9741;51.020;5.304;2023-11-18T04:22:15;6.33;;;2.43;;
19213;SDS011;9741;51.020;5.304;2023-11-18T04:24:59;4.33;;;2.50;;
19213;SDS011;9741;51.020;5.304;2023-11-18T04:27:38;4.00;;;1.80;;
19213;SDS011;9741;51.020;5.304;2023-11-18T04:30:26;3.50;;;2.07;;
19213;SDS011;9741;51.020;5.304;2023-11-18T04:33:10;6.13;;;2.20;;
19213;SDS011;9741;51.020;5.304;2023-11-18T04:35:57;1.77;;;1.67;;
19213;SDS011;9741;51.020;5.304;2023-11-18T04:41:37;2.33;;;1.67;;
19213;SDS011;9741;51.020;5.304;2023-11-18T04:44:13;1.47;;;1.37;;
19213;SDS011;9741;51.020;5.304;2023-11-18T04:47:06;5.47;;;1.57;;
19213;SDS011;9741;51.020;5.304;2023-11-18T04:49:46;1.87;;;1.60;;
19213;SDS011;9741;51.020;5.304;2023-11-18T04:52:16;1.43;;;1.20;;
19213;SDS011;9741;51.020;5.304;2023-11-18T04:54:46;1.53;;;1.33;;
19213;SDS011;9741;51.020;5.304;2023-11-18T04:57:17;1.47;;;1.30;;
19213;SDS011;9741;51.020;5.304;2023-11-18T04:59:46;1.37;;;1.27;;
19213;SDS011;9741;51.020;5.304;2023-11-18T05:02:16;0.80;;;0.80;;
19213;SDS011;9741;51.020;5.304;2023-11-18T05:04:47;0.90;;;0.90;;
19213;SDS011;9741;51.020;5.304;2023-11-18T05:07:17;0.97;;;0.97;;
19213;SDS011;9741;51.020;5.304;2023-11-18T05:09:48;1.17;;;1.07;;
19213;SDS011;9741;51.020;5.304;2023-11-18T05:12:37;1.70;;;1.13;;
19213;SDS011;9741;51.020;5.304;2023-11-18T05:15:23;1.30;;;1.17;;
19213;SDS011;9741;51.020;5.304;2023-11-18T05:17:53;0.93;;;0.93;;
19213;SDS011;9741;51.020;5.304;2023-11-18T05:20:32;0.57;;;0.57;;
19213;SDS011;9741;51.020;5.304;2023-11-18T05:23:20;1.47;;;0.93;;
19213;SDS011;9741;51.020;5.304;2023-11-18T05:25:49;0.80;;;0.80;;
19213;SDS011;9741;51.020;5.304;2023-11-18T05:28:18;0.80;;;0.80;;
19213;SDS011;9741;51.020;5.304;2023-11-18T05:30:50;2.73;;;0.93;;
19213;SDS011;9741;51.020;5.304;2023-11-18T05:33:35;1.13;;;1.00;;
19213;SDS011;9741;51.020;5.304;2023-11-18T05:36:20;0.90;;;0.87;;
19213;SDS011;9741;51.020;5.304;2023-11-18T05:39:04;1.03;;;1.00;;
19213;SDS011;9741;51.020;5.304;2023-11-18T05:41:42;2.63;;;1.10;;
19213;SDS011;9741;51.020;5.304;2023-11-18T05:44:15;0.83;;;0.83;;
19213;SDS011;9741;51.020;5.304;2023-11-18T05:46:47;1.70;;;1.47;;
19213;SDS011;9741;51.020;5.304;2023-11-18T05:49:17;0.70;;;0.70;;
19213;SDS011;9741;51.020;5.304;2023-11-18T05:51:53;0.60;;;0.60;;
19213;SDS011;9741;51.020;5.304;2023-11-18T05:54:22;1.50;;;1.40;;
19213;SDS011;9741;51.020;5.304;2023-11-18T05:57:12;5.23;;;1.17;;
19213;SDS011;9741;51.020;5.304;2023-11-18T05:59:50;0.87;;;0.87;;
19213;SDS011;9741;51.020;5.304;2023-11-18T06:02:26;1.40;;;1.23;;
19213;SDS011;9741;51.020;5.304;2023-11-18T06:05:07;3.33;;;0.97;;
19213;SDS011;9741;51.020;5.304;2023-11-18T06:07:44;0.70;;;0.70;;
19213;SDS011;9741;51.020;5.304;2023-11-18T06:10:18;4.13;;;1.00;;
19213;SDS011;9741;51.020;5.304;2023-11-18T06:12:51;1.27;;;0.83;;
19213;SDS011;9741;51.020;5.304;2023-11-18T06:15:24;0.47;;;0.47;;
19213;SDS011;9741;51.020;5.304;2023-11-18T06:18:05;0.40;;;0.40;;
19213;SDS011;9741;51.020;5.304;2023-11-18T06:20:35;0.63;;;0.63;;
19213;SDS011;9741;51.020;5.304;2023-11-18T06:23:13;1.53;;;1.27;;
19213;SDS011;9741;51.020;5.304;2023-11-18T06:26:07;3.90;;;0.87;;
19213;SDS011;9741;51.020;5.304;2023-11-18T06:28:55;0.93;;;0.83;;
19213;SDS011;9741;51.020;5.304;2023-11-18T06:31:44;0.67;;;0.67;;
19213;SDS011;9741;51.020;5.304;2023-11-18T06:34:46;2.47;;;1.27;;
19213;SDS011;9741;51.020;5.304;2023-11-18T06:37:20;1.17;;;0.90;;
19213;SDS011;9741;51.020;5.304;2023-11-18T06:42:49;0.93;;;0.93;;
19213;SDS011;9741;51.020;5.304;2023-11-18T06:45:36;0.73;;;0.73;;
19213;SDS011;9741;51.020;5.304;2023-11-18T06:48:07;1.83;;;0.73;;
19213;SDS011;9741;51.020;5.304;2023-11-18T06:50:51;0.90;;;0.90;;
19213;SDS011;9741;51.020;5.304;2023-11-18T06:53:20;0.53;;;0.53;;
19213;SDS011;9741;51.020;5.304;2023-11-18T06:56:03;1.00;;;0.60;;
19213;SDS011;9741;51.020;5.304;2023-11-18T06:58:36;2.80;;;0.80;;
19213;SDS011;9741;51.020;5.304;2023-11-18T07:01:11;1.80;;;0.87;;
19213;SDS011;9741;51.020;5.304;2023-11-18T07:06:54;0.60;;;0.60;;
19213;SDS011;9741;51.020;5.304;2023-11-18T07:09:54;4.77;;;1.27;;
19213;SDS011;9741;51.020;5.304;2023-11-18T07:15:49;0.60;;;0.60;;
19213;SDS011;9741;51.020;5.304;2023-11-18T07:18:31;0.57;;;0.57;;
19213;SDS011;9741;51.020;5.304;2023-11-18T07:21:25;0.80;;;0.80;;
19213;SDS011;9741;51.020;5.304;2023-11-18T07:24:01;0.70;;;0.70;;
19213;SDS011;9741;51.020;5.304;2023-11-18T07:26:37;1.07;;;1.07;;
19213;SDS011;9741;51.020;5.304;2023-11-18T07:29:07;0.40;;;0.40;;
19213;SDS011;9741;51.020;5.304;2023-11-18T07:31:41;1.03;;;0.73;;
19213;SDS011;9741;51.020;5.304;2023-11-18T07:34:45;0.50;;;0.50;;
19213;SDS011;9741;51.020;5.304;2023-11-18T07:37:21;0.53;;;0.53;;
19213;SDS011;9741;51.020;5.304;2023-11-18T07:40:10;0.73;;;0.70;;
19213;SDS011;9741;51.020;5.304;2023-11-18T07:42:55;1.40;;;1.07;;
19213;SDS011;9741;51.020;5.304;2023-11-18T07:48:18;4.43;;;0.83;;
19213;SDS011;9741;51.020;5.304;2023-11-18T07:50:54;2.30;;;0.53;;
19213;SDS011;9741;51.020;5.304;2023-11-18T07:53:44;8.67;;;0.87;;
19213;SDS011;9741;51.020;5.304;2023-11-18T07:56:30;0.40;;;0.40;;
19213;SDS011;9741;51.020;5.304;2023-11-18T07:59:02;0.30;;;0.30;;
19213;SDS011;9741;51.020;5.304;2023-11-18T08:01:44;2.10;;;1.27;;
19213;SDS011;9741;51.020;5.304;2023-11-18T08:04:17;0.50;;;0.50;;
19213;SDS011;9741;51.020;5.304;2023-11-18T08:06:52;0.83;;;0.70;;
19213;SDS011;9741;51.020;5.304;2023-11-18T08:09:26;0.87;;;0.70;;
19213;SDS011;9741;51.020;5.304;2023-11-18T08:11:58;0.57;;;0.50;;
19213;SDS011;9741;51.020;5.304;2023-11-18T08:14:28;0.60;;;0.60;;
19213;SDS011;9741;51.020;5.304;2023-11-18T08:16:57;0.20;;;0.20;;
19213;SDS011;9741;51.020;5.304;2023-11-18T08:19:42;1.10;;;0.70;;
19213;SDS011;9741;51.020;5.304;2023-11-18T08:22:11;0.53;;;0.53;;
19213;SDS011;9741;51.020;5.304;2023-11-18T08:24:51;1.20;;;0.83;;
19213;SDS011;9741;51.020;5.304;2023-11-18T08:27:22;0.77;;;0.73;;
19213;SDS011;9741;51.020;5.304;2023-11-18T08:32:44;2.00;;;0.73;;
19213;SDS011;9741;51.020;5.304;2023-11-18T08:35:17;1.13;;;0.93;;
19213;SDS011;9741;51.020;5.304;2023-11-18T08:37:46;0.40;;;0.40;;
19213;SDS011;9741;51.020;5.304;2023-11-18T08:40:16;0.80;;;0.80;;
19213;SDS011;9741;51.020;5.304;2023-11-18T08:42:48;0.33;;;0.33;;
19213;SDS011;9741;51.020;5.304;2023-11-18T08:45:24;0.47;;;0.47;;
19213;SDS011;9741;51.020;5.304;2023-11-18T08:48:03;0.73;;;0.73;;
19213;SDS011;9741;51.020;5.304;2023-11-18T08:50:45;0.87;;;0.70;;
19213;SDS011;9741;51.020;5.304;2023-11-18T08:53:17;1.80;;;1.40;;
19213;SDS011;9741;51.020;5.304;2023-11-18T08:56:06;1.80;;;1.03;;
19213;SDS011;9741;51.020;5.304;2023-11-18T08:59:04;0.80;;;0.80;;
19213;SDS011;9741;51.020;5.304;2023-11-18T09:01:42;1.40;;;0.83;;
19213;SDS011;9741;51.020;5.304;2023-11-18T09:04:11;1.53;;;0.93;;
19213;SDS011;9741;51.020;5.304;2023-11-18T09:06:41;1.47;;;0.60;;
19213;SDS011;9741;51.020;5.304;2023-11-18T09:09:11;1.17;;;1.03;;
19213;SDS011;9741;51.020;5.304;2023-11-18T09:11:40;0.33;;;0.33;;
19213;SDS011;9741;51.020;5.304;2023-11-18T09:14:08;0.63;;;0.63;;
19213;SDS011;9741;51.020;5.304;2023-11-18T09:16:36;0.40;;;0.40;;
19213;SDS011;9741;51.020;5.304;2023-11-18T09:19:08;9.57;;;1.27;;
19213;SDS011;9741;51.020;5.304;2023-11-18T09:21:41;0.33;;;0.33;;
19213;SDS011;9741;51.020;5.304;2023-11-18T09:24:09;0.60;;;0.60;;
19213;SDS011;9741;51.020;5.304;2023-11-18T09:26:38;0.60;;;0.47;;
19213;SDS011;9741;51.020;5.304;2023-11-18T09:29:09;2.50;;;1.53;;
19213;SDS011;9741;51.020;5.304;2023-11-18T09:31:49;0.90;;;0.73;;
19213;SDS011;9741;51.020;5.304;2023-11-18T09:34:17;0.40;;;0.40;;
19213;SDS011;9741;51.020;5.304;2023-11-18T09:36:55;0.70;;;0.70;;
19213;SDS011;9741;51.020;5.304;2023-11-18T09:39:22;0.50;;;0.50;;
19213;SDS011;9741;51.020;5.304;2023-11-18T09:42:16;1.13;;;1.03;;
19213;SDS011;9741;51.020;5.304;2023-11-18T09:44:50;0.97;;;0.87;;
19213;SDS011;9741;51.020;5.304;2023-11-18T09:47:20;1.37;;;1.27;;
19213;SDS011;9741;51.020;5.304;2023-11-18T09:49:52;0.60;;;0.60;;
19213;SDS011;9741;51.020;5.304;2023-11-18T09:52:29;0.97;;;0.97;;
19213;SDS011;9741;51.020;5.304;2023-11-18T09:55:32;1.57;;;1.20;;
19213;SDS011;9741;51.020;5.304;2023-11-18T09:58:09;0.20;;;0.20;;
19213;SDS011;9741;51.020;5.304;2023-11-18T10:00:41;0.63;;;0.63;;
19213;SDS011;9741;51.020;5.304;2023-11-18T10:03:08;0.67;;;0.67;;
19213;SDS011;9741;51.020;5.304;2023-11-18T10:05:41;0.70;;;0.70;;
19213;SDS011;9741;51.020;5.304;2023-11-18T10:08:12;1.87;;;1.27;;
19213;SDS011;9741;51.020;5.304;2023-11-18T10:10:41;0.53;;;0.50;;
19213;SDS011;9741;51.020;5.304;2023-11-18T10:13:14;5.80;;;0.87;;
19213;SDS011;9741;51.020;5.304;2023-11-18T10:15:49;3.93;;;1.00;;
19213;SDS011;9741;51.020;5.304;2023-11-18T10:18:19;0.37;;;0.37;;
19213;SDS011;9741;51.020;5.304;2023-11-18T10:20:49;1.60;;;0.90;;
19213;SDS011;9741;51.020;5.304;2023-11-18T10:23:18;2.50;;;1.03;;
19213;SDS011;9741;51.020;5.304;2023-11-18T10:25:46;1.03;;;1.00;;
19213;SDS011;9741;51.020;5.304;2023-11-18T10:28:22;1.40;;;1.30;;
19213;SDS011;9741;51.020;5.304;2023-11-18T10:30:53;0.67;;;0.67;;
19213;SDS011;9741;51.020;5.304;2023-11-18T10:33:24;5.40;;;1.37;;
19213;SDS011;9741;51.020;5.304;2023-11-18T10:35:56;0.60;;;0.60;;
19213;SDS011;9741;51.020;5.304;2023-11-18T10:38:30;3.57;;;0.90;;
19213;SDS011;9741;51.020;5.304;2023-11-18T10:41:01;0.83;;;0.80;;
19213;SDS011;9741;51.020;5.304;2023-11-18T10:43:33;0.50;;;0.50;;
19213;SDS011;9741;51.020;5.304;2023-11-18T10:46:04;1.67;;;1.00;;
19213;SDS011;9741;51.020;5.304;2023-11-18T10:48:39;0.97;;;0.93;;
19213;SDS011;9741;51.020;5.304;2023-11-18T10:51:08;3.07;;;0.83;;
19213;SDS011;9741;51.020;5.304;2023-11-18T10:53:41;0.60;;;0.60;;
19213;SDS011;9741;51.020;5.304;2023-11-18T10:56:19;1.10;;;0.70;;
19213;SDS011;9741;51.020;5.304;2023-11-18T10:58:51;0.80;;;0.80;;
19213;SDS011;9741;51.020;5.304;2023-11-18T11:01:26;0.80;;;0.80;;
19213;SDS011;9741;51.020;5.304;2023-11-18T11:03:53;0.60;;;0.57;;
19213;SDS011;9741;51.020;5.304;2023-11-18T11:06:23;1.33;;;0.93;;
19213;SDS011;9741;51.020;5.304;2023-11-18T11:08:59;0.50;;;0.50;;
19213;SDS011;9741;51.020;5.304;2023-11-18T11:11:28;0.77;;;0.50;;
19213;SDS011;9741;51.020;5.304;2023-11-18T11:14:05;1.33;;;1.23;;
19213;SDS011;9741;51.020;5.304;2023-11-18T11:16:40;1.57;;;0.80;;
19213;SDS011;9741;51.020;5.304;2023-11-18T11:19:12;0.50;;;0.50;;
19213;SDS011;9741;51.020;5.304;2023-11-18T11:21:54;0.73;;;0.60;;
19213;SDS011;9741;51.020;5.304;2023-11-18T11:24:28;4.33;;;1.03;;
19213;SDS011;9741;51.020;5.304;2023-11-18T11:27:09;3.20;;;1.50;;
19213;SDS011;9741;51.020;5.304;2023-11-18T11:29:48;1.87;;;1.03;;
19213;SDS011;9741;51.020;5.304;2023-11-18T11:32:23;0.40;;;0.40;;
19213;SDS011;9741;51.020;5.304;2023-11-18T11:35:06;0.53;;;0.53;;
19213;SDS011;9741;51.020;5.304;2023-11-18T11:37:44;1.13;;;0.63;;
19213;SDS011;9741;51.020;5.304;2023-11-18T11:40:14;0.77;;;0.50;;
19213;SDS011;9741;51.020;5.304;2023-11-18T11:42:49;1.77;;;1.17;;
19213;SDS011;9741;51.020;5.304;2023-11-18T11:45:23;1.50;;;1.07;;
19213;SDS011;9741;51.020;5.304;2023-11-18T11:47:54;0.60;;;0.60;;
19213;SDS011;9741;51.020;5.304;2023-11-18T11:50:44;1.10;;;0.40;;
19213;SDS011;9741;51.020;5.304;2023-11-18T11:53:40;1.23;;;1.03;;
19213;SDS011;9741;51.020;5.304;2023-11-18T11:56:13;1.43;;;0.83;;
19213;SDS011;9741;51.020;5.304;2023-11-18T11:58:46;1.53;;;1.13;;
19213;SDS011;9741;51.020;5.304;2023-11-18T12:01:25;3.03;;;1.03;;
19213;SDS011;9741;51.020;5.304;2023-11-18T12:04:02;2.17;;;0.83;;
19213;SDS011;9741;51.020;5.304;2023-11-18T12:06:31;1.17;;;0.80;;
19213;SDS011;9741;51.020;5.304;2023-11-18T12:09:03;0.40;;;0.40;;
19213;SDS011;9741;51.020;5.304;2023-11-18T12:11:34;0.70;;;0.70;;
19213;SDS011;9741;51.020;5.304;2023-11-18T12:14:07;1.07;;;0.60;;
19213;SDS011;9741;51.020;5.304;2023-11-18T12:17:04;2.93;;;1.27;;
19213;SDS011;9741;51.020;5.304;2023-11-18T12:19:36;1.10;;;0.63;;
19213;SDS011;9741;51.020;5.304;2023-11-18T12:22:12;0.67;;;0.60;;
19213;SDS011;9741;51.020;5.304;2023-11-18T12:24:45;2.23;;;0.83;;
19213;SDS011;9741;51.020;5.304;2023-11-18T12:33:21;0.57;;;0.57;;
19213;SDS011;9741;51.020;5.304;2023-11-18T12:39:10;2.43;;;0.60;;
19213;SDS011;9741;51.020;5.304;2023-11-18T12:42:03;0.67;;;0.67;;
19213;SDS011;9741;51.020;5.304;2023-11-18T12:44:38;0.40;;;0.40;;
19213;SDS011;9741;51.020;5.304;2023-11-18T12:47:41;2.87;;;1.00;;
19213;SDS011;9741;51.020;5.304;2023-11-18T12:50:18;0.50;;;0.50;;
19213;SDS011;9741;51.020;5.304;2023-11-18T12:52:51;0.53;;;0.53;;
19213;SDS011;9741;51.020;5.304;2023-11-18T12:55:19;0.20;;;0.20;;
19213;SDS011;9741;51.020;5.304;2023-11-18T12:57:47;0.83;;;0.53;;
19213;SDS011;9741;51.020;5.304;2023-11-18T13:00:17;0.37;;;0.37;;
19213;SDS011;9741;51.020;5.304;2023-11-18T13:02:52;0.60;;;0.60;;
19213;SDS011;9741;51.020;5.304;2023-11-18T13:05:21;0.30;;;0.30;;
19213;SDS011;9741;51.020;5.304;2023-11-18T13:07:55;0.50;;;0.50;;
19213;SDS011;9741;51.020;5.304;2023-11-18T13:10:27;3.20;;;0.63;;
19213;SDS011;9741;51.020;5.304;2023-11-18T13:12:55;5.60;;;0.87;;
19213;SDS011;9741;51.020;5.304;2023-11-18T13:15:23;0.57;;;0.43;;
19213;SDS011;9741;51.020;5.304;2023-11-18T13:18:02;0.20;;;0.20;;
19213;SDS011;9741;51.020;5.304;2023-11-18T13:20:32;0.70;;;0.70;;
19213;SDS011;9741;51.020;5.304;2023-11-18T13:23:01;0.40;;;0.40;;
19213;SDS011;9741;51.020;5.304;2023-11-18T13:25:34;0.20;;;0.20;;
19213;SDS011;9741;51.020;5.304;2023-11-18T13:28:04;0.30;;;0.30;;
19213;SDS011;9741;51.020;5.304;2023-11-18T13:30:35;0.53;;;0.53;;
19213;SDS011;9741;51.020;5.304;2023-11-18T13:33:04;0.97;;;0.87;;
19213;SDS011;9741;51.020;5.304;2023-11-18T13:35:34;0.20;;;0.20;;
19213;SDS011;9741;51.020;5.304;2023-11-18T13:38:02;2.57;;;0.57;;
19213;SDS011;9741;51.020;5.304;2023-11-18T13:40:42;0.70;;;0.70;;
19213;SDS011;9741;51.020;5.304;2023-11-18T13:43:13;0.20;;;0.20;;
19213;SDS011;9741;51.020;5.304;2023-11-18T13:45:43;0.20;;;0.20;;
19213;SDS011;9741;51.020;5.304;2023-11-18T13:48:16;0.33;;;0.33;;
19213;SDS011;9741;51.020;5.304;2023-11-18T13:50:49;0.20;;;0.20;;
19213;SDS011;9741;51.020;5.304;2023-11-18T13:53:16;1.00;;;0.80;;
19213;SDS011;9741;51.020;5.304;2023-11-18T13:55:45;0.67;;;0.67;;
19213;SDS011;9741;51.020;5.304;2023-11-18T13:58:15;0.40;;;0.40;;
19213;SDS011;9741;51.020;5.304;2023-11-18T14:00:45;0.20;;;0.20;;
19213;SDS011;9741;51.020;5.304;2023-11-18T14:03:14;0.50;;;0.50;;
19213;SDS011;9741;51.020;5.304;2023-11-18T14:05:42;0.20;;;0.20;;
19213;SDS011;9741;51.020;5.304;2023-11-18T14:08:16;0.20;;;0.20;;
19213;SDS011;9741;51.020;5.304;2023-11-18T14:10:45;0.20;;;0.20;;
19213;SDS011;9741;51.020;5.304;2023-11-18T14:13:14;0.40;;;0.40;;
19213;SDS011;9741;51.020;5.304;2023-11-18T14:15:43;0.20;;;0.20;;
19213;SDS011;9741;51.020;5.304;2023-11-18T14:18:14;0.30;;;0.30;;
19213;SDS011;9741;51.020;5.304;2023-11-18T14:20:43;0.20;;;0.20;;
19213;SDS011;9741;51.020;5.304;2023-11-18T14:23:14;0.67;;;0.67;;
19213;SDS011;9741;51.020;5.304;2023-11-18T14:25:44;2.57;;;0.57;;
19213;SDS011;9741;51.020;5.304;2023-11-18T14:28:12;0.57;;;0.57;;
19213;SDS011;9741;51.020;5.304;2023-11-18T14:30:39;0.20;;;0.20;;
19213;SDS011;9741;51.020;5.304;2023-11-18T14:33:07;0.30;;;0.30;;
19213;SDS011;9741;51.020;5.304;2023-11-18T14:35:35;0.20;;;0.20;;
19213;SDS011;9741;51.020;5.304;2023-11-18T14:38:02;0.83;;;0.43;;
19213;SDS011;9741;51.020;5.304;2023-11-18T14:40:31;0.20;;;0.20;;
19213;SDS011;9741;51.020;5.304;2023-11-18T14:43:00;0.30;;;0.30;;
19213;SDS011;9741;51.020;5.304;2023-11-18T14:45:28;0.20;;;0.20;;
19213;SDS011;9741;51.020;5.304;2023-11-18T14:47:55;0.30;;;0.30;;
19213;SDS011;9741;51.020;5.304;2023-11-18T14:50:22;0.20;;;0.20;;
19213;SDS011;9741;51.020;5.304;2023-11-18T14:52:52;0.23;;;0.23;;
19213;SDS011;9741;51.020;5.304;2023-11-18T14:55:24;0.20;;;0.20;;
19213;SDS011;9741;51.020;5.304;2023-11-18T14:57:53;0.50;;;0.40;;
19213;SDS011;9741;51.020;5.304;2023-11-18T15:00:23;0.20;;;0.20;;
19213;SDS011;9741;51.020;5.304;2023-11-18T15:02:53;0.27;;;0.27;;
19213;SDS011;9741;51.020;5.304;2023-11-18T15:05:21;0.40;;;0.40;;
19213;SDS011;9741;51.020;5.304;2023-11-18T15:07:49;0.77;;;0.73;;
19213;SDS011;9741;51.020;5.304;2023-11-18T15:10:18;2.70;;;1.17;;
19213;SDS011;9741;51.020;5.304;2023-11-18T15:12:47;0.57;;;0.30;;
19213;SDS011;9741;51.020;5.304;2023-11-18T15:15:20;0.83;;;0.63;;
19213;SDS011;9741;51.020;5.304;2023-11-18T15:17:48;0.40;;;0.40;;
19213;SDS011;9741;51.020;5.304;2023-11-18T15:20:16;0.40;;;0.40;;
19213;SDS011;9741;51.020;5.304;2023-11-18T15:22:48;0.20;;;0.20;;
19213;SDS011;9741;51.020;5.304;2023-11-18T15:25:16;0.30;;;0.30;;
19213;SDS011;9741;51.020;5.304;2023-11-18T15:27:45;0.20;;;0.20;;
19213;SDS011;9741;51.020;5.304;2023-11-18T15:30:13;0.20;;;0.20;;
19213;SDS011;9741;51.020;5.304;2023-11-18T15:32:45;0.30;;;0.30;;
19213;SDS011;9741;51.020;5.304;2023-11-18T15:35:13;0.30;;;0.30;;
19213;SDS011;9741;51.020;5.304;2023-11-18T15:37:42;0.40;;;0.30;;
19213;SDS011;9741;51.020;5.304;2023-11-18T15:43:40;0.30;;;0.30;;
19213;SDS011;9741;51.020;5.304;2023-11-18T15:46:10;0.20;;;0.20;;
19213;SDS011;9741;51.020;5.304;2023-11-18T15:48:38;0.10;;;0.10;;
19213;SDS011;9741;51.020;5.304;2023-11-18T15:51:15;0.70;;;0.70;;
19213;SDS011;9741;51.020;5.304;2023-11-18T15:53:46;0.40;;;0.40;;
19213;SDS011;9741;51.020;5.304;2023-11-18T15:56:15;0.30;;;0.30;;
19213;SDS011;9741;51.020;5.304;2023-11-18T15:58:42;0.47;;;0.47;;
19213;SDS011;9741;51.020;5.304;2023-11-18T16:01:12;0.40;;;0.30;;
19213;SDS011;9741;51.020;5.304;2023-11-18T16:03:41;0.53;;;0.53;;
19213;SDS011;9741;51.020;5.304;2023-11-18T16:06:16;0.40;;;0.40;;
19213;SDS011;9741;51.020;5.304;2023-11-18T16:08:47;0.60;;;0.50;;
19213;SDS011;9741;51.020;5.304;2023-11-18T16:11:18;0.30;;;0.30;;
19213;SDS011;9741;51.020;5.304;2023-11-18T16:13:46;1.03;;;0.67;;
19213;SDS011;9741;51.020;5.304;2023-11-18T16:16:14;0.40;;;0.40;;
19213;SDS011;9741;51.020;5.304;2023-11-18T16:18:43;0.67;;;0.60;;
19213;SDS011;9741;51.020;5.304;2023-11-18T16:21:20;0.27;;;0.27;;
19213;SDS011;9741;51.020;5.304;2023-11-18T16:23:52;1.60;;;0.43;;
19213;SDS011;9741;51.020;5.304;2023-11-18T16:26:30;0.40;;;0.40;;
19213;SDS011;9741;51.020;5.304;2023-11-18T16:28:57;0.30;;;0.30;;